^^
Grace C. Lehan Memorial Weather Station Historical Data
Daily Summary for May 23, 2021 Units:  Metric    English   Both
Daily Weekly Monthly Yearly
  High: Low: Average:
Temperature: 1.4 °C -6.6 °C -2.6 °C
Dew Point: -5.2 °C -15.2 °C -11.3 °C
Humidity: 63.3% 38.9% 52%
Wind Speed: 43.5km/h 0.6km/h 13.7km/h
Wind Gust: 53.1km/h - -
Wind- - NW
Pressure: 1018.2 hPa 1009.7 hPa -
Precipitation: 0 mm    
 
 
Tabular Data for May 23, 2021
Time Temperature Dew Point Pressure Wind Wind Speed Wind Gust Humidity Rainfall Rate (Hourly) solar
00:04 1.4 °C -5.2 °C 1010 hPa WNW 7.4 km/h 27.4 km/h 61% 0 mm 0 W/m2
00:09 1.4 °C -5.4 °C 1010 hPa WNW 9.7 km/h 24.1 km/h 60.3% 0 mm 0 W/m2
00:14 1.3 °C -5.6 °C 1010 hPa WNW 10.1 km/h 25.7 km/h 59.7% 0 mm 0 W/m2
00:19 1.3 °C -5.6 °C 1010 hPa WNW 7.4 km/h 25.7 km/h 60% 0 mm 0 W/m2
00:24 1.3 °C -5.8 °C 1009.7 hPa WNW 16.6 km/h 29 km/h 59.4% 0 mm 0 W/m2
00:29 1.2 °C -6.1 °C 1010 hPa NW 8.2 km/h 29 km/h 58.1% 0 mm 0 W/m2
00:34 1.2 °C -6.2 °C 1010 hPa WNW 11.3 km/h 29 km/h 58% 0 mm 0 W/m2
00:39 1.2 °C -6.2 °C 1010 hPa NW 7.2 km/h 24.1 km/h 58% 0 mm 0 W/m2
00:44 1.1 °C -6.3 °C 1010 hPa NW 10.3 km/h 25.7 km/h 58% 0 mm 0 W/m2
00:49 1 °C -6.4 °C 1010 hPa WNW 10 km/h 25.7 km/h 57.4% 0 mm 0 W/m2
00:54 0.9 °C -6.6 °C 1010 hPa NW 8.9 km/h 25.7 km/h 57% 0 mm 0 W/m2
00:59 0.9 °C -6.9 °C 1010 hPa WNW 13.7 km/h 25.7 km/h 56% 0 mm 0 W/m2
01:04 0.8 °C -7.2 °C 1010 hPa NW 9.8 km/h 25.7 km/h 55% 0 mm 0 W/m2
01:09 0.8 °C -7.4 °C 1010 hPa WNW 16.1 km/h 32.2 km/h 54.2% 0 mm 0 W/m2
01:14 0.7 °C -7.7 °C 1010.4 hPa WNW 15.3 km/h 32.2 km/h 53.6% 0 mm 0 W/m2
01:19 0.7 °C -7.8 °C 1010.4 hPa WNW 16.6 km/h 32.2 km/h 53.1% 0 mm 0 W/m2
01:24 0.6 °C -7.8 °C 1010.4 hPa WNW 12.6 km/h 32.2 km/h 53.4% 0 mm 0 W/m2
01:29 0.6 °C -7.7 °C 1010 hPa WNW 9.5 km/h 32.2 km/h 54% 0 mm 0 W/m2
01:34 0.5 °C -7.8 °C 1010.4 hPa NW 6.3 km/h 32.2 km/h 54% 0 mm 0 W/m2
01:39 0.4 °C -7.8 °C 1010.4 hPa NW 8.7 km/h 19.3 km/h 54% 0 mm 0 W/m2
01:44 0.3 °C -7.9 °C 1010.4 hPa WNW 9.7 km/h 19.3 km/h 54% 0 mm 0 W/m2
01:49 0.2 °C -7.8 °C 1010.4 hPa NW 6.8 km/h 19.3 km/h 54.7% 0 mm 0 W/m2
01:54 0.2 °C -7.8 °C 1010.7 hPa NW 8.2 km/h 19.3 km/h 55% 0 mm 0 W/m2
01:59 0.1 °C -7.9 °C 1010.7 hPa WNW 10.9 km/h 20.9 km/h 55% 0 mm 0 W/m2
02:04 0 °C -7.9 °C 1010.7 hPa NW 15.4 km/h 30.6 km/h 55% 0 mm 0 W/m2
02:09 0 °C -7.9 °C 1010.7 hPa WNW 10.9 km/h 30.6 km/h 55% 0 mm 0 W/m2
02:14 0 °C -7.8 °C 1010.7 hPa WNW 8.5 km/h 30.6 km/h 55.8% 0 mm 0 W/m2
02:19 -0.1 °C -7.8 °C 1010.7 hPa WNW 10.1 km/h 30.6 km/h 56% 0 mm 0 W/m2
02:24 -0.2 °C -7.8 °C 1011.1 hPa WNW 12.9 km/h 30.6 km/h 56% 0 mm 0 W/m2
02:29 -0.2 °C -7.8 °C 1011.1 hPa WNW 11.9 km/h 30.6 km/h 56.3% 0 mm 0 W/m2
02:34 -0.2 °C -7.7 °C 1011.1 hPa WNW 12.6 km/h 30.6 km/h 57% 0 mm 0 W/m2
02:39 -0.3 °C -7.8 °C 1011.1 hPa WNW 9.7 km/h 27.4 km/h 57% 0 mm 0 W/m2
02:44 -0.3 °C -7.7 °C 1011.1 hPa WNW 13.5 km/h 27.4 km/h 57.4% 0 mm 0 W/m2
02:49 -0.3 °C -7.6 °C 1010.7 hPa WNW 14.5 km/h 29 km/h 58% 0 mm 0 W/m2
02:54 -0.3 °C -7.6 °C 1011.1 hPa WNW 11.1 km/h 29 km/h 58% 0 mm 0 W/m2
02:59 -0.3 °C -7.6 °C 1011.1 hPa NW 10.1 km/h 29 km/h 58.2% 0 mm 0 W/m2
03:04 -0.3 °C -7.5 °C 1011.1 hPa WNW 7.4 km/h 29 km/h 58.5% 0 mm 0 W/m2
03:09 -0.3 °C -7.4 °C 1011.1 hPa WNW 5.5 km/h 17.7 km/h 59% 0 mm 0 W/m2
03:14 -0.3 °C -7.4 °C 1011.1 hPa WNW 4.2 km/h 17.7 km/h 59% 0 mm 0 W/m2
03:19 -0.3 °C -7.4 °C 1010.7 hPa WNW 6.1 km/h 19.3 km/h 59% 0 mm 0 W/m2
03:24 -0.3 °C -7.4 °C 1011.1 hPa WNW 9.5 km/h 20.9 km/h 59% 0 mm 0 W/m2
03:29 -0.3 °C -7.4 °C 1010.7 hPa WNW 7.2 km/h 20.9 km/h 59% 0 mm 0 W/m2
03:34 -0.3 °C -7.4 °C 1011.1 hPa WNW 9.2 km/h 20.9 km/h 59% 0 mm 0 W/m2
03:39 -0.4 °C -7.4 °C 1011.1 hPa WNW 11.1 km/h 25.7 km/h 59% 0 mm 0 W/m2
03:44 -0.4 °C -7.5 °C 1011.1 hPa WNW 8.5 km/h 25.7 km/h 59% 0 mm 0 W/m2
03:49 -0.5 °C -7.5 °C 1011.1 hPa WNW 5 km/h 25.7 km/h 59.1% 0 mm 0 W/m2
03:54 -0.6 °C -7.4 °C 1011.1 hPa WNW 12.9 km/h 27.4 km/h 59.6% 0 mm 0 W/m2
03:59 -0.6 °C -7.3 °C 1011.1 hPa NW 8.9 km/h 27.4 km/h 60% 0 mm 0 W/m2
04:00 -0.6 °C -7.3 °C 1011.1 hPa NNW 9.7 km/h 27.4 km/h 60% 0 mm 0 W/m2
04:09 -0.6 °C -7.1 °C 1011.4 hPa NW 8.9 km/h 19.3 km/h 61% 0 mm 0 W/m2
04:14 -0.6 °C -6.9 °C 1011.4 hPa NW 11.4 km/h 24.1 km/h 62% 0 mm 0 W/m2
04:19 -0.7 °C -6.9 °C 1011.4 hPa NW 10.3 km/h 25.7 km/h 62.8% 0 mm 0 W/m2
04:24 -0.8 °C -6.9 °C 1011.4 hPa NW 8.5 km/h 25.7 km/h 63% 0 mm 0 W/m2
04:29 -0.8 °C -6.9 °C 1011.4 hPa NW 9.7 km/h 29 km/h 63.3% 0 mm 0 W/m2
04:34 -0.9 °C -7.1 °C 1011.4 hPa NW 10.3 km/h 29 km/h 63% 0 mm 0 W/m2
04:39 -0.9 °C -7.1 °C 1011.4 hPa WNW 4.5 km/h 25.7 km/h 63% 0 mm 0 W/m2
04:44 -1 °C -7.2 °C 1011.7 hPa WNW 6.8 km/h 25.7 km/h 62.5% 0 mm 0 W/m2
04:49 -1 °C -7.5 °C 1011.7 hPa WNW 10.5 km/h 25.7 km/h 61.4% 0 mm 0 W/m2
04:54 -1.1 °C -7.8 °C 1011.7 hPa NW 5.8 km/h 25.7 km/h 60% 0 mm 0 W/m2
04:59 -1.2 °C -8.2 °C 1011.7 hPa NW 13.7 km/h 27.4 km/h 59% 0 mm 0 W/m2
05:04 -1.2 °C -8.4 °C 1011.7 hPa NW 7.9 km/h 27.4 km/h 58% 0 mm 0 W/m2
05:09 -1.3 °C -8.5 °C 1011.7 hPa NW 6 km/h 14.5 km/h 58% 0 mm 0 W/m2
05:14 -1.4 °C -8.6 °C 1011.7 hPa WNW 6.4 km/h 14.5 km/h 58% 0 mm 0 W/m2
05:19 -1.5 °C -8.7 °C 1011.7 hPa WNW 5 km/h 16.1 km/h 58% 0 mm 0 W/m2
05:24 -1.6 °C -8.5 °C 1011.7 hPa WNW 0.8 km/h 16.1 km/h 59% 0 mm 0 W/m2
05:29 -1.7 °C -8.6 °C 1011.7 hPa WNW 1.8 km/h 16.1 km/h 59% 0 mm 0 W/m2
05:34 -1.7 °C -8.7 °C 1011.7 hPa NW 3.1 km/h 16.1 km/h 59% 0 mm 0 W/m2
05:39 -1.8 °C -8.6 °C 1012.1 hPa NW 3.4 km/h 11.3 km/h 60% 0 mm 0 W/m2
05:44 -1.9 °C -8.6 °C 1012.1 hPa NW 9.5 km/h 20.9 km/h 60.4% 0 mm 0 W/m2
05:49 -2 °C -8.5 °C 1012.1 hPa NW 0.6 km/h 20.9 km/h 61% 0 mm 0 W/m2
05:54 -2 °C -8.4 °C 1012.1 hPa NW 11.7 km/h 27.4 km/h 61.7% 0 mm 0 W/m2
05:59 -2 °C -8.3 °C 1012.4 hPa NW 12.9 km/h 27.4 km/h 62% 0 mm 0 W/m2
06:04 -1.9 °C -8.2 °C 1012.4 hPa NW 11.9 km/h 29 km/h 62.3% 0 mm 0 W/m2
06:09 -1.9 °C -8.1 °C 1012.4 hPa NW 9.3 km/h 29 km/h 62.5% 0 mm 0 W/m2
06:14 -1.9 °C -8.2 °C 1012.4 hPa NW 9.8 km/h 29 km/h 62% 0 mm 0 W/m2
06:19 -1.9 °C -8.3 °C 1012.4 hPa NW 6.9 km/h 29 km/h 61.9% 0 mm 0 W/m2
06:24 -2 °C -8.6 °C 1012.4 hPa NW 14 km/h 29 km/h 60.9% 0 mm 0 W/m2
06:29 -2.1 °C -9 °C 1012.8 hPa NW 16.4 km/h 35.4 km/h 59.1% 0 mm 0 W/m2
06:34 -2.2 °C -9.1 °C 1012.8 hPa NW 14.2 km/h 35.4 km/h 59% 0 mm 0 W/m2
06:39 -2.3 °C -9.2 °C 1012.8 hPa WNW 13.8 km/h 29 km/h 59% 0 mm 0 W/m2
06:44 -2.3 °C -9.3 °C 1012.8 hPa NW 17.5 km/h 29 km/h 58.5% 0 mm 0 W/m2
06:49 -2.4 °C -9.5 °C 1012.8 hPa NW 9.2 km/h 29 km/h 58% 0 mm 0 W/m2
06:54 -2.4 °C -9.6 °C 1012.8 hPa WNW 11.6 km/h 29 km/h 58% 0 mm 0 W/m2
06:59 -2.5 °C -9.6 °C 1013.1 hPa WNW 13.7 km/h 29 km/h 58% 0 mm 0 W/m2
07:04 -2.6 °C -9.7 °C 1013.1 hPa WNW 12.9 km/h 29 km/h 58% 0 mm 0 W/m2
07:09 -2.6 °C -9.8 °C 1013.1 hPa WNW 14 km/h 32.2 km/h 57.6% 0 mm 0 W/m2
07:14 -2.6 °C -9.9 °C 1013.1 hPa WNW 18 km/h 32.2 km/h 57.2% 0 mm 5 W/m2
07:19 -2.6 °C -9.9 °C 1013.1 hPa WNW 12.9 km/h 32.2 km/h 57.1% 0 mm 12 W/m2
07:24 -2.7 °C -9.8 °C 1013.1 hPa WNW 11.9 km/h 32.2 km/h 57.8% 0 mm 16 W/m2
07:29 -2.6 °C -9.8 °C 1013.1 hPa WNW 13 km/h 32.2 km/h 57.8% 0 mm 16 W/m2
07:34 -2.6 °C -9.7 °C 1013.1 hPa WNW 13.4 km/h 32.2 km/h 58% 0 mm 25 W/m2
07:39 -2.6 °C -9.7 °C 1013.1 hPa WNW 9.8 km/h 25.7 km/h 58% 0 mm 19 W/m2
07:44 -2.7 °C -9.8 °C 1013.1 hPa WNW 12.2 km/h 25.7 km/h 58% 0 mm 19 W/m2
07:49 -2.7 °C -9.8 °C 1013.1 hPa WNW 11.9 km/h 27.4 km/h 58% 0 mm 23 W/m2
07:54 -2.7 °C -9.8 °C 1013.1 hPa NW 11.1 km/h 27.4 km/h 58% 0 mm 26 W/m2
07:59 -2.7 °C -9.9 °C 1013.1 hPa NW 18.8 km/h 51.5 km/h 57.7% 0 mm 26 W/m2
08:04 -2.8 °C -10.6 °C 1013.1 hPa WNW 43.5 km/h 43.5 km/h 55% 0 mm 30 W/m2
08:09 -2.8 °C -10.6 °C 1013.4 hPa WNW 25.1 km/h 46.7 km/h 55% 0 mm 53 W/m2
08:14 -2.8 °C -10.6 °C 1013.4 hPa WNW 20.1 km/h 46.7 km/h 55% 0 mm 83 W/m2
08:19 -2.7 °C -10.4 °C 1013.1 hPa WNW 19.2 km/h 46.7 km/h 55% 0 mm 98 W/m2
08:24 -2.5 °C -10.4 °C 1013.1 hPa WNW 17.5 km/h 46.7 km/h 54.5% 0 mm 137 W/m2
08:29 -2.3 °C -10.4 °C 1013.1 hPa WNW 22.7 km/h 46.7 km/h 53.7% 0 mm 146 W/m2
08:34 -2.3 °C -10.6 °C 1013.1 hPa WNW 17.2 km/h 46.7 km/h 53% 0 mm 76 W/m2
08:39 -2.4 °C -10.8 °C 1013.1 hPa WNW 26.9 km/h 46.7 km/h 52.6% 0 mm 114 W/m2
08:44 -2.6 °C -10.9 °C 1013.1 hPa WNW 24.3 km/h 51.5 km/h 52.7% 0 mm 141 W/m2
08:49 -2.6 °C -10.9 °C 1013.4 hPa NW 17.2 km/h 51.5 km/h 52.8% 0 mm 160 W/m2
08:54 -2.4 °C -10.9 °C 1013.4 hPa WNW 16.1 km/h 51.5 km/h 52.4% 0 mm 186 W/m2
08:59 -2.3 °C -10.8 °C 1013.4 hPa WNW 19.6 km/h 51.5 km/h 52% 0 mm 214 W/m2
09:04 -2.1 °C -10.7 °C 1013.4 hPa WNW 13.4 km/h 51.5 km/h 52% 0 mm 216 W/m2
09:09 -2 °C -10.7 °C 1013.8 hPa WNW 17.7 km/h 38.6 km/h 51.2% 0 mm 230 W/m2
09:14 -1.9 °C -10.8 °C 1013.8 hPa WNW 21.4 km/h 38.6 km/h 50.6% 0 mm 230 W/m2
09:19 -2 °C -11 °C 1013.8 hPa WNW 21.4 km/h 41.8 km/h 50.2% 0 mm 239 W/m2
09:24 -2.1 °C -10.8 °C 1013.8 hPa NW 19 km/h 43.5 km/h 51% 0 mm 190 W/m2
09:29 -2 °C -10.8 °C 1013.8 hPa WNW 24.1 km/h 45.1 km/h 50.7% 0 mm 279 W/m2
09:34 -1.9 °C -10.9 °C 1013.8 hPa WNW 21.6 km/h 45.1 km/h 50.3% 0 mm 239 W/m2
09:39 -1.9 °C -10.7 °C 1013.8 hPa WNW 19.5 km/h 35.4 km/h 50.8% 0 mm 151 W/m2
09:44 -1.8 °C -10.6 °C 1013.8 hPa WNW 17.4 km/h 35.4 km/h 51% 0 mm 237 W/m2
09:45 -1.8 °C -10.6 °C 1013.8 hPa WNW 10.8 km/h 35.4 km/h 51% 0 mm 237 W/m2
10:00 -2.1 °C -10.9 °C 1014.1 hPa NW 19.3 km/h 41.8 km/h 51% 0 mm 127 W/m2
10:30 -1.6 °C -10.4 °C 1014.4 hPa NW 17.7 km/h 43.5 km/h 51% 0 mm 214 W/m2
11:00 -1 °C -10.3 °C 1014.4 hPa NW 19.3 km/h 45.1 km/h 49% 0 mm 405 W/m2
11:30 -1 °C -10.3 °C 1014.1 hPa NW 16.1 km/h 37 km/h 49% 0 mm 219 W/m2
12:04 -1.3 °C -10.8 °C 1014.1 hPa NW 17.9 km/h 37 km/h 48.1% 0 mm 219 W/m2
12:09 -1.3 °C -10.8 °C 1014.1 hPa NW 17.7 km/h 38.6 km/h 48% 0 mm 462 W/m2
12:14 -1.3 °C -11.1 °C 1014.1 hPa WNW 19.2 km/h 38.6 km/h 47.1% 0 mm 552 W/m2
12:19 -1.3 °C -11.2 °C 1014.1 hPa WNW 16.7 km/h 38.6 km/h 47% 0 mm 77 W/m2
12:24 -1.3 °C -11.3 °C 1014.1 hPa NW 18 km/h 38.6 km/h 46.3% 0 mm 167 W/m2
12:29 -1.2 °C -11.8 °C 1013.8 hPa NW 24 km/h 45.1 km/h 44.6% 0 mm 165 W/m2
12:34 -1.3 °C -12 °C 1013.8 hPa NW 18.3 km/h 45.1 km/h 44% 0 mm 258 W/m2
12:39 -1.4 °C -12.2 °C 1014.1 hPa WNW 18.3 km/h 51.5 km/h 43.4% 0 mm 193 W/m2
12:44 -1.3 °C -12.1 °C 1013.8 hPa NW 17.4 km/h 51.5 km/h 43.6% 0 mm 149 W/m2
12:49 -1.3 °C -12.2 °C 1013.8 hPa NW 19.3 km/h 51.5 km/h 43.3% 0 mm 146 W/m2
12:54 -1.3 °C -12.6 °C 1013.8 hPa NW 20.3 km/h 51.5 km/h 42.1% 0 mm 90 W/m2
12:59 -1.3 °C -12.9 °C 1013.8 hPa NW 21.1 km/h 51.5 km/h 41% 0 mm 186 W/m2
13:04 -1.4 °C -12.9 °C 1013.8 hPa NW 20.6 km/h 51.5 km/h 41% 0 mm 401 W/m2
13:09 -1.4 °C -13.2 °C 1013.8 hPa NW 21.4 km/h 41.8 km/h 40.4% 0 mm 77 W/m2
13:14 -1.5 °C -13.2 °C 1013.8 hPa NW 22 km/h 43.5 km/h 40.4% 0 mm 274 W/m2
13:19 -1.6 °C -13.1 °C 1013.8 hPa NW 17.5 km/h 43.5 km/h 41% 0 mm 304 W/m2
13:24 -1.4 °C -13 °C 1013.8 hPa NW 14.5 km/h 43.5 km/h 41% 0 mm 399 W/m2
13:29 -1.3 °C -12.9 °C 1014.1 hPa NW 19.3 km/h 43.5 km/h 41% 0 mm 218 W/m2
13:34 -1.3 °C -13.2 °C 1014.1 hPa NW 24.1 km/h 53.1 km/h 39.7% 0 mm 144 W/m2
13:39 -1.4 °C -13.6 °C 1014.1 hPa NW 22.2 km/h 53.1 km/h 39% 0 mm 211 W/m2
13:44 -1.5 °C -13.6 °C 1014.1 hPa NW 16.7 km/h 53.1 km/h 39% 0 mm 167 W/m2
13:49 -1.5 °C -13.7 °C 1014.1 hPa WNW 17.9 km/h 53.1 km/h 38.9% 0 mm 264 W/m2
13:54 -1.5 °C -13.7 °C 1014.1 hPa NW 15.4 km/h 53.1 km/h 39% 0 mm 125 W/m2
13:59 -1.4 °C -13.6 °C 1014.4 hPa NW 24.3 km/h 53.1 km/h 39.2% 0 mm 255 W/m2
14:04 -1.6 °C -13.8 °C 1014.4 hPa NW 22.9 km/h 53.1 km/h 39% 0 mm 255 W/m2
14:09 -1.8 °C -13.8 °C 1014.4 hPa NW 21.9 km/h 45.1 km/h 39.3% 0 mm 167 W/m2
14:14 -1.7 °C -13.7 °C 1014.1 hPa WNW 24.1 km/h 49.9 km/h 39.5% 0 mm 216 W/m2
14:19 -1.8 °C -13.7 °C 1014.1 hPa NW 17.5 km/h 49.9 km/h 39.6% 0 mm 192 W/m2
14:24 -1.7 °C -13.6 °C 1014.1 hPa NW 15.1 km/h 49.9 km/h 39.8% 0 mm 329 W/m2
14:29 -1.6 °C -13.5 °C 1014.1 hPa NW 15.4 km/h 49.9 km/h 39.9% 0 mm 338 W/m2
14:34 -1.6 °C -13.5 °C 1014.4 hPa NW 19.3 km/h 49.9 km/h 39.8% 0 mm 311 W/m2
14:39 -1.7 °C -13.8 °C 1014.1 hPa NW 21.1 km/h 40.2 km/h 39% 0 mm 56 W/m2
14:44 -1.8 °C -13.8 °C 1014.1 hPa WNW 19 km/h 40.2 km/h 39.5% 0 mm 174 W/m2
14:49 -1.8 °C -13.6 °C 1014.4 hPa WNW 20 km/h 53.1 km/h 40% 0 mm 174 W/m2
14:54 -1.9 °C -13.6 °C 1014.4 hPa NW 23 km/h 53.1 km/h 40.4% 0 mm 109 W/m2
14:59 -1.9 °C -13.4 °C 1014.4 hPa WNW 20.3 km/h 53.1 km/h 41% 0 mm 84 W/m2
15:04 -2 °C -13.4 °C 1014.4 hPa WNW 19.6 km/h 53.1 km/h 41.4% 0 mm 28 W/m2
15:09 -2.1 °C -13.4 °C 1014.4 hPa WNW 22.4 km/h 41.8 km/h 41.5% 0 mm 28 W/m2
15:14 -2.1 °C -13.1 °C 1014.8 hPa WNW 14.3 km/h 41.8 km/h 42.6% 0 mm 26 W/m2
15:19 -2.1 °C -13 °C 1014.8 hPa WNW 12.9 km/h 41.8 km/h 43% 0 mm 26 W/m2
15:24 -2.1 °C -13 °C 1014.8 hPa WNW 15.6 km/h 41.8 km/h 42.9% 0 mm 25 W/m2
15:29 -2.1 °C -13.2 °C 1014.8 hPa NW 15.9 km/h 41.8 km/h 42.4% 0 mm 25 W/m2
15:34 -2.1 °C -13.3 °C 1015.1 hPa NW 13.4 km/h 41.8 km/h 42% 0 mm 23 W/m2
15:39 -2.2 °C -13.4 °C 1015.1 hPa NW 19 km/h 38.6 km/h 42% 0 mm 23 W/m2
15:44 -2.3 °C -13.5 °C 1015.1 hPa WNW 14.5 km/h 38.6 km/h 42% 0 mm 21 W/m2
15:49 -2.4 °C -13.6 °C 1015.1 hPa WNW 11.6 km/h 38.6 km/h 42% 0 mm 21 W/m2
15:54 -2.4 °C -13.6 °C 1015.5 hPa NW 16.7 km/h 38.6 km/h 42% 0 mm 19 W/m2
15:59 -2.6 °C -13.7 °C 1015.1 hPa WNW 18.2 km/h 38.6 km/h 42% 0 mm 19 W/m2
16:04 -2.7 °C -13.8 °C 1015.1 hPa WNW 16.7 km/h 27.4 km/h 42% 0 mm 18 W/m2
16:09 -2.8 °C -13.7 °C 1015.1 hPa NW 10.8 km/h 27.4 km/h 42.7% 0 mm 18 W/m2
16:14 -2.8 °C -13.7 °C 1015.5 hPa NW 11.7 km/h 27.4 km/h 43% 0 mm 16 W/m2
16:19 -2.9 °C -13.7 °C 1015.5 hPa NW 9.2 km/h 27.4 km/h 43% 0 mm 14 W/m2
16:24 -2.9 °C -13.7 °C 1015.5 hPa NW 13.4 km/h 32.2 km/h 43% 0 mm 14 W/m2
16:29 -3 °C -14.1 °C 1015.5 hPa NW 12.1 km/h 32.2 km/h 42% 0 mm 12 W/m2
16:34 -3.1 °C -14.1 °C 1015.5 hPa NW 12.1 km/h 32.2 km/h 42% 0 mm 11 W/m2
16:39 -3.1 °C -14.2 °C 1015.5 hPa NW 11.4 km/h 32.2 km/h 42% 0 mm 9 W/m2
16:44 -3.2 °C -14.3 °C 1015.5 hPa WNW 16.6 km/h 37 km/h 42% 0 mm 7 W/m2
16:49 -3.3 °C -14.3 °C 1015.8 hPa NW 14.2 km/h 37 km/h 42.4% 0 mm 5 W/m2
16:54 -3.3 °C -14.2 °C 1015.8 hPa NW 15.3 km/h 37 km/h 43% 0 mm 0 W/m2
16:59 -3.4 °C -14.2 °C 1015.8 hPa NW 11.4 km/h 37 km/h 43.4% 0 mm 0 W/m2
17:04 -3.6 °C -14 °C 1015.8 hPa NW 8.4 km/h 37 km/h 44% 0 mm 0 W/m2
17:09 -3.6 °C -14.1 °C 1015.8 hPa NW 12.6 km/h 25.7 km/h 44% 0 mm 0 W/m2
17:14 -3.7 °C -14.2 °C 1015.8 hPa NW 8.7 km/h 25.7 km/h 44% 0 mm 0 W/m2
17:19 -3.8 °C -14.2 °C 1015.8 hPa NW 10.3 km/h 25.7 km/h 44% 0 mm 0 W/m2
17:24 -3.8 °C -14.3 °C 1015.8 hPa NW 9.5 km/h 25.7 km/h 44% 0 mm 0 W/m2
17:29 -3.9 °C -14.4 °C 1016.1 hPa WNW 6.6 km/h 25.7 km/h 43.8% 0 mm 0 W/m2
17:34 -3.9 °C -14.4 °C 1016.1 hPa NW 8.4 km/h 25.7 km/h 44% 0 mm 0 W/m2
17:39 -4 °C -14.4 °C 1016.1 hPa NW 10.3 km/h 22.5 km/h 44% 0 mm 0 W/m2
17:44 -4.1 °C -14.7 °C 1016.5 hPa NW 16.3 km/h 32.2 km/h 43.4% 0 mm 0 W/m2
17:49 -4.1 °C -14.6 °C 1016.5 hPa WNW 10.3 km/h 32.2 km/h 43.9% 0 mm 0 W/m2
17:54 -4.2 °C -14.9 °C 1016.5 hPa NW 10.8 km/h 33.8 km/h 43.1% 0 mm 0 W/m2
17:59 -4.3 °C -14.9 °C 1016.8 hPa NW 13.8 km/h 33.8 km/h 43% 0 mm 0 W/m2
18:04 -4.3 °C -15 °C 1016.8 hPa WNW 15 km/h 33.8 km/h 43% 0 mm 0 W/m2
18:09 -4.3 °C -15.1 °C 1016.8 hPa NW 14.5 km/h 30.6 km/h 43% 0 mm 0 W/m2
18:14 -4.4 °C -15.1 °C 1017.2 hPa WNW 12.2 km/h 30.6 km/h 43% 0 mm 0 W/m2
18:19 -4.4 °C -15.1 °C 1017.2 hPa NW 8.2 km/h 30.6 km/h 43% 0 mm 0 W/m2
18:24 -4.5 °C -14.9 °C 1017.2 hPa WNW 13 km/h 30.6 km/h 43.7% 0 mm 0 W/m2
18:29 -4.6 °C -14.9 °C 1017.2 hPa NW 10.9 km/h 30.6 km/h 44% 0 mm 0 W/m2
18:34 -4.6 °C -15 °C 1017.2 hPa WNW 13.4 km/h 30.6 km/h 44% 0 mm 0 W/m2
18:39 -4.7 °C -15.1 °C 1017.2 hPa NW 18.2 km/h 37 km/h 43.9% 0 mm 0 W/m2
18:44 -4.7 °C -15.2 °C 1017.5 hPa NW 13.8 km/h 37 km/h 43.5% 0 mm 0 W/m2
18:49 -4.8 °C -15.2 °C 1017.5 hPa WNW 17.9 km/h 37 km/h 44% 0 mm 0 W/m2
18:54 -4.8 °C -15.2 °C 1017.5 hPa NW 15.6 km/h 37 km/h 44% 0 mm 0 W/m2
18:59 -4.9 °C -15.1 °C 1017.5 hPa WNW 8.5 km/h 37 km/h 44.7% 0 mm 0 W/m2
19:04 -4.9 °C -15.1 °C 1017.5 hPa WNW 10 km/h 37 km/h 45% 0 mm 0 W/m2
19:09 -5.1 °C -15.1 °C 1017.8 hPa NW 10 km/h 24.1 km/h 45% 0 mm 0 W/m2
19:14 -5.1 °C -15 °C 1017.8 hPa WNW 11.1 km/h 24.1 km/h 45.6% 0 mm 0 W/m2
19:19 -5.2 °C -15 °C 1017.8 hPa WNW 11.7 km/h 27.4 km/h 45.8% 0 mm 0 W/m2
19:24 -5.2 °C -14.9 °C 1017.8 hPa WNW 6.1 km/h 27.4 km/h 46.1% 0 mm 0 W/m2
19:29 -5.2 °C -14.9 °C 1017.8 hPa WNW 13.2 km/h 29 km/h 46.6% 0 mm 0 W/m2
19:34 -5.3 °C -14.8 °C 1018.2 hPa NW 16.3 km/h 37 km/h 47% 0 mm 0 W/m2
19:39 -5.3 °C -14.7 °C 1018.2 hPa NW 19 km/h 37 km/h 47.5% 0 mm 0 W/m2
19:44 -5.3 °C -14.6 °C 1018.2 hPa NW 15.1 km/h 37 km/h 48% 0 mm 0 W/m2
19:49 -5.3 °C -14.4 °C 1017.8 hPa NW 13 km/h 37 km/h 48.8% 0 mm 0 W/m2
19:54 -5.4 °C -14.4 °C 1017.8 hPa NW 11.6 km/h 37 km/h 49% 0 mm 0 W/m2
19:59 -5.4 °C -14.3 °C 1017.8 hPa NW 16.4 km/h 37 km/h 49.6% 0 mm 0 W/m2
20:04 -5.4 °C -14.2 °C 1017.8 hPa North 19.3 km/h 19.3 km/h 50% 0 mm 0 W/m2
20:09 -5.4 °C -14.2 °C 1017.8 hPa NW 12.1 km/h 30.6 km/h 50% 0 mm 0 W/m2
20:14 -5.5 °C -14.1 °C 1017.8 hPa NW 13.4 km/h 30.6 km/h 50.7% 0 mm 0 W/m2
20:19 -5.5 °C -14.1 °C 1017.8 hPa NW 10.9 km/h 30.6 km/h 51% 0 mm 0 W/m2
20:24 -5.6 °C -13.8 °C 1017.8 hPa NW 8.9 km/h 30.6 km/h 52% 0 mm 0 W/m2
20:29 -5.6 °C -13.9 °C 1017.8 hPa NW 12.7 km/h 30.6 km/h 52% 0 mm 0 W/m2
20:34 -5.6 °C -13.7 °C 1017.8 hPa NW 11.6 km/h 32.2 km/h 52.8% 0 mm 0 W/m2
20:39 -5.7 °C -13.7 °C 1018.2 hPa NW 13.5 km/h 32.2 km/h 53% 0 mm 0 W/m2
20:44 -5.7 °C -13.6 °C 1018.2 hPa NW 13.5 km/h 32.2 km/h 53.6% 0 mm 0 W/m2
20:49 -5.7 °C -13.5 °C 1018.2 hPa NW 9.8 km/h 32.2 km/h 54% 0 mm 0 W/m2
20:54 -5.7 °C -13.6 °C 1018.2 hPa NW 18.5 km/h 40.2 km/h 53.8% 0 mm 0 W/m2
20:59 -5.7 °C -13.4 °C 1018.2 hPa NW 17.2 km/h 40.2 km/h 54.1% 0 mm 0 W/m2
21:04 -5.7 °C -13.3 °C 1017.8 hPa NW 17.2 km/h 40.2 km/h 55% 0 mm 0 W/m2
21:09 -5.7 °C -13.3 °C 1017.8 hPa NW 21.6 km/h 40.2 km/h 55% 0 mm 0 W/m2
21:14 -5.7 °C -13.1 °C 1017.8 hPa NNW 23.7 km/h 40.2 km/h 55.9% 0 mm 0 W/m2
21:19 -5.7 °C -13.1 °C 1017.8 hPa NW 10.9 km/h 40.2 km/h 56% 0 mm 0 W/m2
21:24 -5.7 °C -13.1 °C 1018.2 hPa NW 15.9 km/h 40.2 km/h 56.3% 0 mm 0 W/m2
21:29 -5.8 °C -12.9 °C 1017.8 hPa NW 16.6 km/h 40.2 km/h 57% 0 mm 0 W/m2
21:34 -5.8 °C -12.9 °C 1017.8 hPa NW 19 km/h 40.2 km/h 57% 0 mm 0 W/m2
21:39 -5.8 °C -12.8 °C 1017.5 hPa NW 17.9 km/h 30.6 km/h 57.8% 0 mm 0 W/m2
21:44 -5.8 °C -12.7 °C 1017.5 hPa WNW 19.5 km/h 32.2 km/h 58% 0 mm 0 W/m2
21:49 -5.8 °C -12.7 °C 1017.2 hPa WNW 17.1 km/h 38.6 km/h 58% 0 mm 0 W/m2
21:54 -5.8 °C -12.7 °C 1017.2 hPa WNW 15.1 km/h 38.6 km/h 58% 0 mm 0 W/m2
21:59 -5.8 °C -12.6 °C 1017.5 hPa NW 12.9 km/h 38.6 km/h 59% 0 mm 0 W/m2
22:04 -5.8 °C -12.5 °C 1017.8 hPa NNW 16.9 km/h 43.5 km/h 59% 0 mm 0 W/m2
22:09 -5.8 °C -12.5 °C 1017.8 hPa NNW 14 km/h 43.5 km/h 59% 0 mm 0 W/m2
22:14 -5.7 °C -12.4 °C 1017.8 hPa NW 13 km/h 43.5 km/h 59% 0 mm 0 W/m2
22:19 -5.7 °C -12.4 °C 1017.8 hPa NW 19.5 km/h 43.5 km/h 59% 0 mm 0 W/m2
22:24 -5.7 °C -12.4 °C 1017.8 hPa NNW 9.7 km/h 43.5 km/h 59% 0 mm 0 W/m2
22:29 -5.8 °C -12.5 °C 1017.8 hPa NW 10.8 km/h 43.5 km/h 59% 0 mm 0 W/m2
22:34 -5.8 °C -12.6 °C 1017.8 hPa NW 10 km/h 43.5 km/h 59% 0 mm 0 W/m2
22:39 -5.8 °C -12.6 °C 1017.8 hPa NW 8.5 km/h 38.6 km/h 59% 0 mm 0 W/m2
22:44 -5.9 °C -12.6 °C 1018.2 hPa NW 6 km/h 38.6 km/h 59% 0 mm 0 W/m2
22:49 -5.9 °C -12.7 °C 1018.2 hPa NNW 7.6 km/h 38.6 km/h 59% 0 mm 0 W/m2
22:54 -6 °C -12.7 °C 1018.2 hPa NNW 10.6 km/h 38.6 km/h 59% 0 mm 0 W/m2
22:59 -6.1 °C -12.9 °C 1018.2 hPa NW 6.6 km/h 38.6 km/h 58.1% 0 mm 0 W/m2
23:00 -6.1 °C -12.9 °C 1017.8 hPa WSW 3.2 km/h 38.6 km/h 58% 0 mm 0 W/m2
23:09 -6.2 °C -13.1 °C 1018.2 hPa NW 8.4 km/h 27.4 km/h 58% 0 mm 0 W/m2
23:14 -6.3 °C -13.3 °C 1018.2 hPa NW 11.7 km/h 27.4 km/h 57.4% 0 mm 0 W/m2
23:19 -6.3 °C -13.4 °C 1018.2 hPa NW 8.7 km/h 27.4 km/h 57% 0 mm 0 W/m2
23:24 -6.3 °C -13.4 °C 1018.2 hPa NW 11.3 km/h 32.2 km/h 57% 0 mm 0 W/m2
23:29 -6.3 °C -13.4 °C 1018.2 hPa NW 7.9 km/h 32.2 km/h 57% 0 mm 0 W/m2
23:34 -6.4 °C -13.5 °C 1017.8 hPa NW 15 km/h 32.2 km/h 57% 0 mm 0 W/m2
23:39 -6.4 °C -13.7 °C 1017.8 hPa NW 12.7 km/h 32.2 km/h 56.5% 0 mm 0 W/m2
23:44 -6.5 °C -13.8 °C 1017.8 hPa NW 12.7 km/h 35.4 km/h 56% 0 mm 0 W/m2
23:49 -6.5 °C -13.8 °C 1017.8 hPa NW 14.3 km/h 35.4 km/h 56% 0 mm 0 W/m2
23:54 -6.6 °C -13.9 °C 1017.8 hPa NW 18.3 km/h 35.4 km/h 56% 0 mm 0 W/m2
23:59 -6.6 °C -13.9 °C 1017.8 hPa NW 15.1 km/h 35.4 km/h 56% 0 mm 0 W/m2
Hartford County Weather
Compliments of Weather Underground - 2 mb